createdAt,value
2018-12-20T00:00:57.021Z,7.80
2018-12-20T00:03:26.004Z,7.80
2018-12-20T00:05:55.270Z,7.70
2018-12-20T00:08:24.339Z,7.80
2018-12-20T00:10:53.365Z,7.80
2018-12-20T00:13:22.472Z,7.80
2018-12-20T00:15:51.468Z,7.80
2018-12-20T00:18:20.684Z,7.70
2018-12-20T00:20:49.858Z,7.70
2018-12-20T00:23:19.041Z,7.70
2018-12-20T00:25:48.147Z,7.70
2018-12-20T00:28:17.127Z,7.70
2018-12-20T00:30:46.065Z,7.70
2018-12-20T00:33:15.055Z,7.70
2018-12-20T00:35:44.118Z,7.70
2018-12-20T00:38:13.333Z,7.70
2018-12-20T00:40:42.302Z,7.70
2018-12-20T00:43:11.205Z,7.70
2018-12-20T00:45:40.347Z,7.70
2018-12-20T00:48:09.517Z,7.60
2018-12-20T00:50:38.712Z,7.60
2018-12-20T00:53:07.674Z,7.70
2018-12-20T00:55:36.605Z,7.60
2018-12-20T00:58:05.684Z,7.70
2018-12-20T01:00:34.560Z,7.70
2018-12-20T01:03:03.716Z,7.70
2018-12-20T01:05:32.967Z,7.70
2018-12-20T01:08:01.933Z,7.60
2018-12-20T01:10:31.039Z,7.60
2018-12-20T01:13:00.027Z,7.60
2018-12-20T01:15:29.304Z,7.60
2018-12-20T01:17:58.224Z,7.70
2018-12-20T01:20:27.109Z,7.60
2018-12-20T01:22:56.223Z,7.70
2018-12-20T01:25:25.238Z,7.70
2018-12-20T01:27:54.355Z,7.70
2018-12-20T01:30:23.311Z,7.70
2018-12-20T01:32:52.531Z,7.70
2018-12-20T01:35:21.568Z,7.70
2018-12-20T01:37:50.484Z,7.70
2018-12-20T01:40:19.523Z,7.70
2018-12-20T01:42:48.551Z,7.70
2018-12-20T01:45:17.799Z,7.70
2018-12-20T01:47:46.974Z,7.70
2018-12-20T01:50:16.148Z,7.70
2018-12-20T01:52:45.140Z,7.70
2018-12-20T01:55:14.623Z,7.70
2018-12-20T01:57:43.654Z,7.80
2018-12-20T02:00:12.645Z,7.80
2018-12-20T02:02:41.613Z,7.80
2018-12-20T02:05:10.789Z,7.80
2018-12-20T02:07:39.930Z,7.90
2018-12-20T02:10:09.153Z,7.80
2018-12-20T02:12:38.266Z,7.80
2018-12-20T02:15:07.556Z,7.80
2018-12-20T02:17:36.523Z,7.80
2018-12-20T02:20:06.168Z,7.80
2018-12-20T02:22:35.153Z,7.80
2018-12-20T02:25:04.537Z,7.80
2018-12-20T02:27:33.451Z,7.80
2018-12-20T02:30:02.532Z,7.80
2018-12-20T02:32:31.534Z,7.70
2018-12-20T02:35:00.572Z,7.70
2018-12-20T02:37:29.662Z,7.70
2018-12-20T02:39:58.745Z,7.60
2018-12-20T02:42:27.804Z,7.60
2018-12-20T02:44:56.812Z,7.60
2018-12-20T02:47:29.599Z,7.60
2018-12-20T02:49:58.954Z,7.60
2018-12-20T02:52:28.162Z,7.60
2018-12-20T02:54:57.321Z,7.60
2018-12-20T02:57:26.562Z,7.50
2018-12-20T02:59:55.591Z,7.60
2018-12-20T03:02:25.014Z,7.60
2018-12-20T03:04:54.263Z,7.50
2018-12-20T03:07:23.400Z,7.60
2018-12-20T03:09:52.345Z,7.60
2018-12-20T03:12:21.729Z,7.50
2018-12-20T03:14:51.047Z,7.50
2018-12-20T03:17:20.060Z,7.50
2018-12-20T03:19:49.093Z,7.50
2018-12-20T03:22:18.289Z,7.50
2018-12-20T03:24:47.399Z,7.60
2018-12-20T03:27:16.462Z,7.60
2018-12-20T03:29:45.616Z,7.50
2018-12-20T03:32:14.608Z,7.50
2018-12-20T03:34:43.728Z,7.50
2018-12-20T03:37:12.822Z,7.50
2018-12-20T03:39:41.822Z,7.50
2018-12-20T03:42:11.113Z,7.50
2018-12-20T03:44:40.339Z,7.40
2018-12-20T03:47:09.402Z,7.40
2018-12-20T03:49:38.514Z,7.40
2018-12-20T03:52:07.759Z,7.40
2018-12-20T03:54:37.149Z,7.40
2018-12-20T03:57:06.186Z,7.30
2018-12-20T03:59:35.149Z,7.30
2018-12-20T04:02:04.198Z,7.30
2018-12-20T04:04:33.305Z,7.30
2018-12-20T04:07:02.672Z,7.30
2018-12-20T04:09:31.676Z,7.20
2018-12-20T04:12:00.796Z,7.20
2018-12-20T04:14:30.000Z,7.30
2018-12-20T04:16:59.127Z,7.30
2018-12-20T04:19:28.207Z,7.30
2018-12-20T04:21:57.520Z,7.20
2018-12-20T04:24:26.629Z,7.20
2018-12-20T04:26:55.630Z,7.20
2018-12-20T04:29:24.615Z,7.20
2018-12-20T04:31:54.558Z,7.20
2018-12-20T04:34:23.584Z,7.20
2018-12-20T04:36:52.568Z,7.20
2018-12-20T04:39:21.661Z,7.20
2018-12-20T04:41:50.799Z,7.30
2018-12-20T04:44:20.130Z,7.30
2018-12-20T04:46:49.500Z,7.30
2018-12-20T04:49:18.824Z,7.30
2018-12-20T04:51:48.592Z,7.40
2018-12-20T04:54:17.681Z,7.40
2018-12-20T04:56:46.758Z,7.50
2018-12-20T04:59:16.231Z,7.50
2018-12-20T05:01:45.283Z,7.50
2018-12-20T05:04:14.478Z,7.50
2018-12-20T05:06:43.567Z,7.60
2018-12-20T05:09:12.578Z,7.60
2018-12-20T05:11:41.799Z,7.60
2018-12-20T05:14:10.932Z,7.60
2018-12-20T05:16:40.040Z,7.70
2018-12-20T05:19:09.103Z,7.70
2018-12-20T05:21:38.155Z,7.60
2018-12-20T05:24:07.128Z,7.60
2018-12-20T05:26:36.145Z,7.60
2018-12-20T05:29:05.262Z,7.60
2018-12-20T05:31:34.143Z,7.60
2018-12-20T05:34:03.327Z,7.60
2018-12-20T05:36:32.526Z,7.60
2018-12-20T05:39:01.567Z,7.60
2018-12-20T05:41:30.587Z,7.60
2018-12-20T05:43:59.693Z,7.60
2018-12-20T05:46:28.953Z,7.60
2018-12-20T05:48:58.094Z,7.60
2018-12-20T05:51:27.160Z,7.60
2018-12-20T05:53:56.154Z,7.60
2018-12-20T05:56:25.171Z,7.60
2018-12-20T05:58:54.270Z,7.60
2018-12-20T06:01:23.306Z,7.60
2018-12-20T06:03:52.558Z,7.60
2018-12-20T06:06:21.809Z,7.60
2018-12-20T06:08:50.867Z,7.60
2018-12-20T06:11:19.823Z,7.60
2018-12-20T06:13:48.946Z,7.70
2018-12-20T06:16:18.070Z,7.70
2018-12-20T06:18:47.211Z,7.70
2018-12-20T06:21:16.157Z,7.70
2018-12-20T06:23:45.195Z,7.70
2018-12-20T06:26:14.096Z,7.70
2018-12-20T06:28:42.987Z,7.70
2018-12-20T06:31:12.002Z,7.70
2018-12-20T06:33:40.966Z,7.70
2018-12-20T06:36:09.959Z,7.70
2018-12-20T06:38:38.902Z,7.70
2018-12-20T06:41:08.099Z,7.70
2018-12-20T06:43:37.048Z,7.70
2018-12-20T06:46:05.977Z,7.80
2018-12-20T06:48:34.744Z,7.70
2018-12-20T06:51:03.725Z,7.80
2018-12-20T06:53:32.643Z,7.70
2018-12-20T06:56:01.720Z,7.80
2018-12-20T06:58:30.693Z,7.80
2018-12-20T07:00:59.630Z,7.80
2018-12-20T07:03:28.640Z,7.70
2018-12-20T07:05:57.568Z,7.70
2018-12-20T07:08:26.397Z,7.70
2018-12-20T07:10:55.377Z,7.70
2018-12-20T07:13:24.352Z,7.70
2018-12-20T07:15:53.352Z,7.60
2018-12-20T07:18:22.385Z,7.70
2018-12-20T07:20:51.429Z,7.70
2018-12-20T07:23:20.353Z,7.70
2018-12-20T07:25:49.636Z,7.70
2018-12-20T07:28:18.646Z,7.60
2018-12-20T07:30:47.605Z,7.60
2018-12-20T07:33:16.642Z,7.60
2018-12-20T07:35:45.604Z,7.60
2018-12-20T07:38:14.492Z,7.60
2018-12-20T07:40:43.506Z,7.60
2018-12-20T07:43:12.486Z,7.60
2018-12-20T07:45:41.602Z,7.60
2018-12-20T07:48:10.623Z,7.60
2018-12-20T07:50:39.865Z,7.60
2018-12-20T07:53:08.776Z,7.60
2018-12-20T07:55:37.765Z,7.60
2018-12-20T07:58:06.640Z,7.60
2018-12-20T08:00:35.512Z,7.60
2018-12-20T08:03:05.454Z,7.60
2018-12-20T08:05:34.366Z,7.60
2018-12-20T08:08:03.440Z,7.60
2018-12-20T08:10:32.324Z,7.60
2018-12-20T08:13:01.233Z,7.60
2018-12-20T08:15:30.439Z,7.60
2018-12-20T08:17:59.416Z,7.60
2018-12-20T08:20:28.441Z,7.60
2018-12-20T08:22:57.500Z,7.60
2018-12-20T08:25:26.413Z,7.60
2018-12-20T08:27:55.303Z,7.60
2018-12-20T08:30:24.304Z,7.60
2018-12-20T08:32:53.303Z,7.70
2018-12-20T08:35:22.364Z,7.70
2018-12-20T08:37:51.290Z,7.70
2018-12-20T08:40:20.337Z,7.70
2018-12-20T08:42:49.332Z,7.70
2018-12-20T08:45:18.228Z,7.70
2018-12-20T08:47:47.150Z,7.70
2018-12-20T08:50:16.220Z,7.70
2018-12-20T08:52:45.264Z,7.70
2018-12-20T08:55:14.318Z,7.70
2018-12-20T08:57:43.322Z,7.70
2018-12-20T09:00:12.433Z,7.70
2018-12-20T09:02:41.561Z,7.80
2018-12-20T09:05:10.395Z,7.80
2018-12-20T09:07:39.285Z,7.80
2018-12-20T09:10:08.498Z,7.80
2018-12-20T09:12:37.460Z,7.80
2018-12-20T09:15:06.680Z,7.90
2018-12-20T09:17:35.605Z,7.90
2018-12-20T09:20:05.093Z,7.90
2018-12-20T09:22:34.056Z,8.00
2018-12-20T09:25:02.964Z,8.00
2018-12-20T09:27:31.966Z,8.00
2018-12-20T09:30:01.157Z,8.10
2018-12-20T09:32:30.053Z,8.20
2018-12-20T09:34:59.042Z,8.20
2018-12-20T09:37:28.299Z,8.30
2018-12-20T09:39:57.049Z,8.30
2018-12-20T09:42:25.948Z,8.30
2018-12-20T09:44:55.037Z,8.30
2018-12-20T09:47:29.231Z,8.40
2018-12-20T09:49:58.252Z,8.40
2018-12-20T09:52:27.351Z,8.40
2018-12-20T09:54:56.408Z,8.50
2018-12-20T09:57:25.417Z,8.50
2018-12-20T09:59:54.352Z,8.60
2018-12-20T10:02:23.264Z,8.60
2018-12-20T10:04:52.296Z,8.60
2018-12-20T10:07:21.283Z,8.60
2018-12-20T10:09:50.279Z,8.60
2018-12-20T10:12:19.242Z,8.60
2018-12-20T10:14:48.251Z,8.60
2018-12-20T10:17:19.994Z,8.70
2018-12-20T10:19:48.281Z,8.70
2018-12-20T10:22:17.176Z,8.70
2018-12-20T10:24:46.189Z,8.70
2018-12-20T10:27:15.301Z,8.80
2018-12-20T10:29:44.418Z,8.80
2018-12-20T10:32:13.927Z,8.80
2018-12-20T10:34:43.008Z,8.80
2018-12-20T10:37:12.151Z,8.80
2018-12-20T10:39:41.071Z,8.90
2018-12-20T10:42:10.074Z,8.90
2018-12-20T10:44:39.146Z,8.90
2018-12-20T10:47:13.198Z,8.90
2018-12-20T10:49:42.261Z,8.90
2018-12-20T10:52:11.134Z,9.00
2018-12-20T10:54:40.123Z,9.00
2018-12-20T10:57:09.171Z,9.10
2018-12-20T10:59:38.467Z,9.20
2018-12-20T11:02:12.830Z,9.20
2018-12-20T11:04:47.072Z,9.30
2018-12-20T11:07:21.173Z,9.30
2018-12-20T11:09:55.307Z,9.30
2018-12-20T11:12:26.400Z,9.30
2018-12-20T11:14:55.978Z,9.30
2018-12-20T11:17:25.089Z,9.40
2018-12-20T11:19:54.066Z,9.40
2018-12-20T11:22:23.136Z,9.40
2018-12-20T11:24:52.147Z,9.40
2018-12-20T11:27:21.209Z,9.50
2018-12-20T11:29:50.111Z,9.50
2018-12-20T11:32:19.120Z,9.50
2018-12-20T11:34:48.099Z,9.50
2018-12-20T11:37:17.084Z,9.50
2018-12-20T11:39:46.063Z,9.60
2018-12-20T11:42:15.141Z,9.60
2018-12-20T11:44:44.077Z,9.60
2018-12-20T11:47:18.352Z,9.60
2018-12-20T11:49:47.330Z,9.70
2018-12-20T11:52:16.195Z,9.70
2018-12-20T11:54:45.384Z,9.80
2018-12-20T11:57:14.390Z,9.70
2018-12-20T11:59:43.472Z,9.80
2018-12-20T12:02:12.675Z,9.70
2018-12-20T12:04:41.678Z,9.70
2018-12-20T12:07:10.759Z,9.70
2018-12-20T12:09:39.841Z,9.70
2018-12-20T12:12:08.930Z,9.80
2018-12-20T12:14:37.831Z,9.80
2018-12-20T12:17:07.682Z,9.80
2018-12-20T12:19:36.663Z,9.90
2018-12-20T12:22:05.643Z,9.90
2018-12-20T12:24:34.642Z,9.90
2018-12-20T12:27:03.652Z,9.90
2018-12-20T12:29:32.621Z,9.90
2018-12-20T12:32:01.605Z,9.90
2018-12-20T12:34:30.507Z,9.90
2018-12-20T12:36:59.500Z,9.90
2018-12-20T12:39:28.443Z,10.00
2018-12-20T12:41:57.469Z,10.00
2018-12-20T12:44:26.249Z,10.00
2018-12-20T12:46:55.257Z,10.00
2018-12-20T12:49:24.275Z,10.00
2018-12-20T12:51:53.551Z,10.00
2018-12-20T12:54:22.670Z,10.00
2018-12-20T12:56:51.695Z,10.10
2018-12-20T12:59:20.641Z,10.10
2018-12-20T13:01:49.730Z,10.10
2018-12-20T13:04:18.699Z,10.20
2018-12-20T13:06:47.721Z,10.20
2018-12-20T13:09:16.925Z,10.20
2018-12-20T13:11:46.003Z,10.20
2018-12-20T13:14:14.929Z,10.20
2018-12-20T13:16:43.880Z,10.10
2018-12-20T13:19:12.817Z,10.10
2018-12-20T13:21:41.784Z,10.10
2018-12-20T13:24:10.848Z,10.10
2018-12-20T13:26:39.864Z,10.10
2018-12-20T13:29:08.970Z,10.00
2018-12-20T13:31:38.082Z,10.00
2018-12-20T13:34:07.191Z,10.00
2018-12-20T13:36:36.277Z,10.00
2018-12-20T13:39:07.438Z,9.90
2018-12-20T13:41:36.538Z,9.90
2018-12-20T13:44:05.519Z,9.90
2018-12-20T13:46:34.474Z,9.90
2018-12-20T13:49:03.336Z,9.90
2018-12-20T13:51:32.279Z,9.90
2018-12-20T13:54:01.299Z,9.90
2018-12-20T13:56:30.436Z,9.90
2018-12-20T13:59:03.410Z,9.90
2018-12-20T14:01:30.659Z,9.90
2018-12-20T14:03:59.710Z,9.90
2018-12-20T14:06:28.831Z,9.90
2018-12-20T14:08:57.893Z,10.00
2018-12-20T14:11:27.026Z,9.90
2018-12-20T14:13:56.017Z,9.90
2018-12-20T14:16:25.464Z,10.00
2018-12-20T14:18:54.462Z,9.90
2018-12-20T14:21:23.585Z,10.00
2018-12-20T14:23:52.555Z,10.00
2018-12-20T14:26:21.468Z,10.00
2018-12-20T14:28:50.650Z,10.00
2018-12-20T14:31:19.680Z,10.00
2018-12-20T14:33:48.754Z,10.00
2018-12-20T14:36:17.852Z,10.00
2018-12-20T14:38:46.850Z,10.00
2018-12-20T14:41:15.931Z,10.00
2018-12-20T14:43:45.012Z,10.00
2018-12-20T14:46:13.905Z,10.00
2018-12-20T14:48:43.008Z,10.00
2018-12-20T14:51:12.032Z,10.00
2018-12-20T14:53:41.187Z,10.00
2018-12-20T14:56:10.176Z,9.90
2018-12-20T14:58:39.066Z,9.90
2018-12-20T15:01:08.080Z,9.90
2018-12-20T15:03:37.326Z,9.90
2018-12-20T15:06:06.240Z,9.90
2018-12-20T15:08:35.250Z,9.90
2018-12-20T15:11:04.330Z,9.90
2018-12-20T15:13:33.524Z,9.80
2018-12-20T15:16:02.553Z,9.80
2018-12-20T15:18:31.636Z,9.80
2018-12-20T15:21:00.530Z,9.80
2018-12-20T15:23:29.658Z,9.80
2018-12-20T15:25:58.737Z,9.80
2018-12-20T15:28:27.818Z,9.80
2018-12-20T15:30:56.830Z,9.90
2018-12-20T15:33:25.858Z,9.80
2018-12-20T15:35:54.926Z,9.90
2018-12-20T15:38:23.941Z,9.80
2018-12-20T15:40:53.018Z,9.90
2018-12-20T15:43:22.099Z,9.80
2018-12-20T15:45:51.242Z,9.80
2018-12-20T15:48:20.169Z,9.80
2018-12-20T15:50:49.175Z,9.80
2018-12-20T15:53:18.376Z,9.80
2018-12-20T15:55:47.456Z,9.80
2018-12-20T15:58:16.394Z,9.80
2018-12-20T16:00:45.257Z,9.80
2018-12-20T16:03:14.456Z,9.70
2018-12-20T16:05:43.445Z,9.80
2018-12-20T16:08:12.486Z,9.70
2018-12-20T16:10:41.445Z,9.70
2018-12-20T16:13:10.506Z,9.70
2018-12-20T16:15:39.389Z,9.70
2018-12-20T16:18:08.404Z,9.70
2018-12-20T16:20:37.483Z,9.70
2018-12-20T16:23:06.498Z,9.70
2018-12-20T16:25:35.609Z,9.60
2018-12-20T16:28:04.622Z,9.60
2018-12-20T16:30:33.704Z,9.60
2018-12-20T16:33:02.913Z,9.70
2018-12-20T16:35:31.987Z,9.60
2018-12-20T16:38:00.890Z,9.60
2018-12-20T16:40:30.417Z,9.60
2018-12-20T16:42:59.411Z,9.60
2018-12-20T16:45:28.551Z,9.60
2018-12-20T16:47:57.572Z,9.60
2018-12-20T16:50:26.810Z,9.60
2018-12-20T16:52:55.760Z,9.50
2018-12-20T16:55:24.837Z,9.50
2018-12-20T16:57:53.788Z,9.50
2018-12-20T17:00:22.763Z,9.50
2018-12-20T17:02:51.817Z,9.50
2018-12-20T17:05:20.910Z,9.50
2018-12-20T17:07:49.814Z,9.50
2018-12-20T17:10:18.889Z,9.50
2018-12-20T17:12:47.903Z,9.50
2018-12-20T17:15:18.289Z,9.50
2018-12-20T17:17:47.334Z,9.50
2018-12-20T17:20:16.291Z,9.50
2018-12-20T17:22:45.322Z,9.50
2018-12-20T17:25:14.437Z,9.50
2018-12-20T17:27:43.505Z,9.50
2018-12-20T17:30:12.823Z,9.50
2018-12-20T17:32:41.901Z,9.50
2018-12-20T17:35:11.145Z,9.50
2018-12-20T17:37:40.058Z,9.50
2018-12-20T17:40:09.486Z,9.50
2018-12-20T17:42:38.501Z,9.50
2018-12-20T17:45:08.519Z,9.50
2018-12-20T17:47:37.683Z,9.50
2018-12-20T17:50:08.301Z,9.50
2018-12-20T17:52:38.134Z,9.50
2018-12-20T17:55:07.268Z,9.50
2018-12-20T17:57:36.474Z,9.50
2018-12-20T18:00:06.770Z,9.50
2018-12-20T18:02:35.906Z,9.50
2018-12-20T18:05:07.111Z,9.50
2018-12-20T18:07:36.315Z,9.50
2018-12-20T18:10:08.215Z,9.40
2018-12-20T18:12:37.372Z,9.40
2018-12-20T18:15:09.235Z,9.50
2018-12-20T18:17:38.329Z,9.40
2018-12-20T18:20:09.708Z,9.40
2018-12-20T18:22:38.903Z,9.40
2018-12-20T18:25:08.471Z,9.40
2018-12-20T18:27:37.621Z,9.40
2018-12-20T18:30:09.529Z,9.40
2018-12-20T18:32:38.657Z,9.40
2018-12-20T18:35:08.257Z,9.40
2018-12-20T18:37:37.337Z,9.30
2018-12-20T18:40:07.985Z,9.40
2018-12-20T18:42:37.416Z,9.40
2018-12-20T18:45:07.724Z,9.40
2018-12-20T18:47:36.892Z,9.40
2018-12-20T18:50:07.101Z,9.40
2018-12-20T18:52:36.123Z,9.40
2018-12-20T18:55:05.627Z,9.40
2018-12-20T18:57:34.753Z,9.40
2018-12-20T19:00:03.887Z,9.40
2018-12-20T19:02:32.919Z,9.40
2018-12-20T19:05:02.003Z,9.40
2018-12-20T19:07:31.087Z,9.40
2018-12-20T19:10:00.225Z,9.50
2018-12-20T19:12:29.312Z,9.50
2018-12-20T19:14:58.379Z,9.50
2018-12-20T19:17:27.505Z,9.40
2018-12-20T19:19:56.677Z,9.40
2018-12-20T19:22:25.911Z,9.40
2018-12-20T19:24:55.078Z,9.40
2018-12-20T19:27:24.048Z,9.30
2018-12-20T19:29:53.180Z,9.40
2018-12-20T19:32:22.377Z,9.30
2018-12-20T19:34:51.436Z,9.30
2018-12-20T19:37:20.378Z,9.30
2018-12-20T19:39:53.962Z,9.30
2018-12-20T19:42:23.054Z,9.30
2018-12-20T19:44:52.147Z,9.30
2018-12-20T19:47:22.182Z,9.30
2018-12-20T19:49:51.313Z,9.30
2018-12-20T19:52:20.539Z,9.20
2018-12-20T19:54:49.682Z,9.20
2018-12-20T19:57:18.803Z,9.20
2018-12-20T19:59:47.860Z,9.20
2018-12-20T20:02:17.003Z,9.20
2018-12-20T20:04:46.139Z,9.20
2018-12-20T20:07:15.259Z,9.20
2018-12-20T20:09:44.455Z,9.30
2018-12-20T20:12:13.432Z,9.20
2018-12-20T20:14:42.450Z,9.20
2018-12-20T20:17:11.411Z,9.20
2018-12-20T20:19:40.524Z,9.20
2018-12-20T20:22:09.489Z,9.20
2018-12-20T20:24:38.644Z,9.30
2018-12-20T20:27:07.750Z,9.30
2018-12-20T20:29:36.811Z,9.30
2018-12-20T20:32:05.928Z,9.30
2018-12-20T20:34:35.088Z,9.20
2018-12-20T20:37:04.288Z,9.20
2018-12-20T20:39:33.408Z,9.20
2018-12-20T20:42:02.492Z,9.20
2018-12-20T20:44:31.599Z,9.20
2018-12-20T20:47:00.766Z,9.20
2018-12-20T20:49:29.763Z,9.20
2018-12-20T20:51:58.771Z,9.20
2018-12-20T20:54:27.861Z,9.30
2018-12-20T20:56:57.156Z,9.30
2018-12-20T20:59:26.164Z,9.30
2018-12-20T21:01:55.173Z,9.20
2018-12-20T21:04:24.369Z,9.20
2018-12-20T21:06:54.003Z,9.20
2018-12-20T21:09:23.238Z,9.20
2018-12-20T21:11:52.264Z,9.20
2018-12-20T21:14:21.398Z,9.20
2018-12-20T21:16:50.550Z,9.20
2018-12-20T21:19:19.545Z,9.30
2018-12-20T21:21:48.530Z,9.30
2018-12-20T21:24:18.216Z,9.30
2018-12-20T21:26:47.242Z,9.30
2018-12-20T21:29:16.318Z,9.40
2018-12-20T21:31:45.397Z,9.40
2018-12-20T21:34:14.512Z,9.50
2018-12-20T21:36:43.566Z,9.50
2018-12-20T21:39:12.587Z,9.50
2018-12-20T21:41:41.452Z,9.60
2018-12-20T21:44:10.637Z,9.60
2018-12-20T21:46:39.672Z,9.60
2018-12-20T21:49:08.836Z,9.70
2018-12-20T21:51:37.881Z,9.70
2018-12-20T21:54:06.951Z,9.70
2018-12-20T21:56:36.002Z,9.70
2018-12-20T21:59:05.099Z,9.70
2018-12-20T22:01:34.300Z,9.70
2018-12-20T22:04:03.582Z,9.70
2018-12-20T22:06:32.747Z,9.70
2018-12-20T22:09:01.996Z,9.70
2018-12-20T22:11:30.934Z,9.70
2018-12-20T22:14:00.609Z,9.70
2018-12-20T22:16:29.925Z,9.70
2018-12-20T22:18:58.874Z,9.70
2018-12-20T22:21:27.958Z,9.70
2018-12-20T22:23:56.939Z,9.60
2018-12-20T22:26:26.156Z,9.60
2018-12-20T22:28:55.229Z,9.60
2018-12-20T22:31:24.138Z,9.60
2018-12-20T22:33:53.126Z,9.60
2018-12-20T22:36:22.233Z,9.50
2018-12-20T22:38:51.387Z,9.60
2018-12-20T22:41:20.609Z,9.50
2018-12-20T22:43:49.817Z,9.50
2018-12-20T22:46:18.814Z,9.50
2018-12-20T22:48:47.821Z,9.50
2018-12-20T22:51:17.214Z,9.50
2018-12-20T22:53:46.181Z,9.50
2018-12-20T22:56:15.329Z,9.50
2018-12-20T22:58:44.755Z,9.50
2018-12-20T23:01:14.053Z,9.50
2018-12-20T23:03:42.988Z,9.50
2018-12-20T23:06:12.073Z,9.50
2018-12-20T23:08:41.072Z,9.50
2018-12-20T23:11:10.158Z,9.50
2018-12-20T23:13:39.262Z,9.40
2018-12-20T23:16:08.364Z,9.50
2018-12-20T23:18:37.905Z,9.50
2018-12-20T23:21:06.867Z,9.50
2018-12-20T23:23:35.940Z,9.50
2018-12-20T23:26:05.053Z,9.50
2018-12-20T23:28:34.033Z,9.50
2018-12-20T23:31:03.019Z,9.50
2018-12-20T23:33:32.172Z,9.60
2018-12-20T23:36:01.034Z,9.60
2018-12-20T23:38:30.728Z,9.60
2018-12-20T23:40:59.615Z,9.60
2018-12-20T23:43:28.549Z,9.70
2018-12-20T23:45:57.668Z,9.70
2018-12-20T23:48:26.586Z,9.80
2018-12-20T23:50:55.593Z,9.80
2018-12-20T23:53:24.668Z,9.80
2018-12-20T23:55:53.589Z,9.80
2018-12-20T23:58:23.028Z,9.90
